sensor_id;sensor_type;location;lat;lon;timestamp;pressure;altitude;pressure_sealevel;temperature;humidity
23118;BME280;11728;50.624;6.014;2023-02-12T00:03:24;100423.59;;;7.86;100.00
23118;BME280;11728;50.624;6.014;2023-02-12T00:08:25;100410.94;;;7.68;100.00
23118;BME280;11728;50.624;6.014;2023-02-12T00:13:25;100408.16;;;7.63;100.00
23118;BME280;11728;50.624;6.014;2023-02-12T00:18:25;100409.00;;;7.62;100.00
23118;BME280;11728;50.624;6.014;2023-02-12T00:23:26;100404.66;;;7.63;100.00
23118;BME280;11728;50.624;6.014;2023-02-12T00:28:26;100397.66;;;7.63;100.00
23118;BME280;11728;50.624;6.014;2023-02-12T00:33:28;100402.97;;;7.67;100.00
23118;BME280;11728;50.624;6.014;2023-02-12T00:38:28;100411.78;;;7.69;100.00
23118;BME280;11728;50.624;6.014;2023-02-12T00:43:29;100404.00;;;7.72;100.00
23118;BME280;11728;50.624;6.014;2023-02-12T00:48:30;100405.59;;;7.67;100.00
23118;BME280;11728;50.624;6.014;2023-02-12T00:53:31;100399.56;;;7.69;100.00
23118;BME280;11728;50.624;6.014;2023-02-12T00:58:31;100402.97;;;7.67;100.00
23118;BME280;11728;50.624;6.014;2023-02-12T01:03:32;100415.38;;;7.72;100.00
23118;BME280;11728;50.624;6.014;2023-02-12T01:08:32;100409.28;;;7.75;100.00
23118;BME280;11728;50.624;6.014;2023-02-12T01:13:34;100416.28;;;7.73;100.00
23118;BME280;11728;50.624;6.014;2023-02-12T01:18:36;100412.53;;;7.63;100.00
23118;BME280;11728;50.624;6.014;2023-02-12T01:23:36;100408.09;;;7.60;100.00
23118;BME280;11728;50.624;6.014;2023-02-12T01:28:38;100411.41;;;7.53;100.00
23118;BME280;11728;50.624;6.014;2023-02-12T01:33:39;100403.31;;;7.44;100.00
23118;BME280;11728;50.624;6.014;2023-02-12T01:38:40;100400.63;;;7.41;100.00
23118;BME280;11728;50.624;6.014;2023-02-12T01:43:41;100390.91;;;7.38;100.00
23118;BME280;11728;50.624;6.014;2023-02-12T01:48:44;100399.84;;;7.45;100.00
23118;BME280;11728;50.624;6.014;2023-02-12T01:53:49;100391.81;;;7.39;100.00
23118;BME280;11728;50.624;6.014;2023-02-12T01:58:51;100382.19;;;7.39;100.00
23118;BME280;11728;50.624;6.014;2023-02-12T02:04:01;100379.56;;;7.39;100.00
23118;BME280;11728;50.624;6.014;2023-02-12T02:09:04;100387.31;;;7.35;100.00
23118;BME280;11728;50.624;6.014;2023-02-12T02:14:05;100394.22;;;7.30;100.00
23118;BME280;11728;50.624;6.014;2023-02-12T02:30:11;100388.97;;;7.30;100.00
23118;BME280;11728;50.624;6.014;2023-02-12T02:35:24;100379.41;;;7.32;100.00
23118;BME280;11728;50.624;6.014;2023-02-12T02:40:34;100380.34;;;7.35;100.00
23118;BME280;11728;50.624;6.014;2023-02-12T02:45:40;100369.88;;;7.38;100.00
23118;BME280;11728;50.624;6.014;2023-02-12T02:50:50;100366.28;;;7.33;100.00
23118;BME280;11728;50.624;6.014;2023-02-12T02:55:55;100361.91;;;7.34;100.00
23118;BME280;11728;50.624;6.014;2023-02-12T03:01:01;100362.81;;;7.36;100.00
23118;BME280;11728;50.624;6.014;2023-02-12T03:06:33;100358.28;;;7.29;100.00
23118;BME280;11728;50.624;6.014;2023-02-12T03:11:35;100366.06;;;7.24;100.00
23118;BME280;11728;50.624;6.014;2023-02-12T03:16:58;100365.09;;;7.21;100.00
23118;BME280;11728;50.624;6.014;2023-02-12T03:22:03;100365.19;;;7.24;100.00
23118;BME280;11728;50.624;6.014;2023-02-12T03:27:38;100372.22;;;7.25;100.00
23118;BME280;11728;50.624;6.014;2023-02-12T03:43:18;100370.34;;;7.21;100.00
23118;BME280;11728;50.624;6.014;2023-02-12T03:48:27;100374.75;;;7.20;100.00
23118;BME280;11728;50.624;6.014;2023-02-12T03:53:30;100379.03;;;7.17;100.00
23118;BME280;11728;50.624;6.014;2023-02-12T03:58:33;100379.84;;;7.14;100.00
23118;BME280;11728;50.624;6.014;2023-02-12T04:03:35;100363.03;;;7.08;100.00
23118;BME280;11728;50.624;6.014;2023-02-12T04:08:35;100365.66;;;7.08;100.00
23118;BME280;11728;50.624;6.014;2023-02-12T04:18:48;100372.13;;;7.22;100.00
23118;BME280;11728;50.624;6.014;2023-02-12T04:34:41;100373.78;;;7.17;100.00
23118;BME280;11728;50.624;6.014;2023-02-12T04:39:44;100375.47;;;7.15;100.00
23118;BME280;11728;50.624;6.014;2023-02-12T04:44:45;100387.91;;;7.22;100.00
23118;BME280;11728;50.624;6.014;2023-02-12T04:49:45;100387.91;;;7.22;100.00
23118;BME280;11728;50.624;6.014;2023-02-12T04:54:45;100404.47;;;7.19;100.00
23118;BME280;11728;50.624;6.014;2023-02-12T04:59:46;100399.00;;;7.10;100.00
23118;BME280;11728;50.624;6.014;2023-02-12T05:04:48;100389.16;;;7.02;100.00
23118;BME280;11728;50.624;6.014;2023-02-12T05:09:49;100396.09;;;7.00;100.00
23118;BME280;11728;50.624;6.014;2023-02-12T05:14:49;100401.44;;;7.03;100.00
23118;BME280;11728;50.624;6.014;2023-02-12T05:19:49;100390.25;;;7.10;100.00
23118;BME280;11728;50.624;6.014;2023-02-12T05:24:50;100391.22;;;7.15;100.00
23118;BME280;11728;50.624;6.014;2023-02-12T05:29:50;100392.88;;;7.10;100.00
23118;BME280;11728;50.624;6.014;2023-02-12T05:34:51;100390.94;;;7.03;100.00
23118;BME280;11728;50.624;6.014;2023-02-12T05:39:51;100389.44;;;7.14;100.00
23118;BME280;11728;50.624;6.014;2023-02-12T05:44:52;100391.47;;;7.24;100.00
23118;BME280;11728;50.624;6.014;2023-02-12T05:49:53;100392.34;;;7.24;100.00
23118;BME280;11728;50.624;6.014;2023-02-12T05:54:53;100393.06;;;7.19;100.00
23118;BME280;11728;50.624;6.014;2023-02-12T05:59:53;100397.09;;;7.05;100.00
23118;BME280;11728;50.624;6.014;2023-02-12T06:04:54;100397.81;;;6.98;100.00
23118;BME280;11728;50.624;6.014;2023-02-12T06:09:54;100402.22;;;6.99;100.00
23118;BME280;11728;50.624;6.014;2023-02-12T06:14:54;100408.38;;;6.99;100.00
23118;BME280;11728;50.624;6.014;2023-02-12T06:19:55;100411.06;;;7.02;100.00
23118;BME280;11728;50.624;6.014;2023-02-12T06:24:55;100412.84;;;7.03;100.00
23118;BME280;11728;50.624;6.014;2023-02-12T06:29:56;100418.19;;;7.08;100.00
23118;BME280;11728;50.624;6.014;2023-02-12T06:34:56;100410.31;;;7.08;100.00
23118;BME280;11728;50.624;6.014;2023-02-12T06:39:56;100410.47;;;7.14;100.00
23118;BME280;11728;50.624;6.014;2023-02-12T06:44:57;100419.31;;;7.17;100.00
23118;BME280;11728;50.624;6.014;2023-02-12T06:49:57;100425.50;;;7.19;100.00
23118;BME280;11728;50.624;6.014;2023-02-12T06:54:57;100431.63;;;7.20;100.00
23118;BME280;11728;50.624;6.014;2023-02-12T06:59:58;100426.31;;;7.17;100.00
23118;BME280;11728;50.624;6.014;2023-02-12T07:04:58;100429.69;;;7.11;100.00
23118;BME280;11728;50.624;6.014;2023-02-12T07:09:58;100434.78;;;7.05;100.00
23118;BME280;11728;50.624;6.014;2023-02-12T07:14:59;100438.25;;;7.04;100.00
23118;BME280;11728;50.624;6.014;2023-02-12T07:19:59;100447.09;;;7.08;100.00
23118;BME280;11728;50.624;6.014;2023-02-12T07:25:00;100440.19;;;7.11;100.00
23118;BME280;11728;50.624;6.014;2023-02-12T07:30:00;100449.03;;;7.15;100.00
23118;BME280;11728;50.624;6.014;2023-02-12T07:35:00;100454.25;;;7.13;100.00
23118;BME280;11728;50.624;6.014;2023-02-12T07:40:01;100458.66;;;7.14;100.00
23118;BME280;11728;50.624;6.014;2023-02-12T07:45:01;100468.34;;;7.17;100.00
23118;BME280;11728;50.624;6.014;2023-02-12T07:50:02;100467.56;;;7.21;100.00
23118;BME280;11728;50.624;6.014;2023-02-12T07:55:02;100466.88;;;7.28;100.00
23118;BME280;11728;50.624;6.014;2023-02-12T08:00:03;100463.41;;;7.29;100.00
23118;BME280;11728;50.624;6.014;2023-02-12T08:05:04;100470.56;;;7.34;100.00
23118;BME280;11728;50.624;6.014;2023-02-12T08:10:05;100461.84;;;7.37;100.00
23118;BME280;11728;50.624;6.014;2023-02-12T08:15:06;100465.41;;;7.39;100.00
23118;BME280;11728;50.624;6.014;2023-02-12T08:20:07;100464.63;;;7.43;100.00
23118;BME280;11728;50.624;6.014;2023-02-12T08:25:07;100466.63;;;7.53;100.00
23118;BME280;11728;50.624;6.014;2023-02-12T08:30:08;100468.47;;;7.57;100.00
23118;BME280;11728;50.624;6.014;2023-02-12T08:35:09;100468.63;;;7.63;100.00
23118;BME280;11728;50.624;6.014;2023-02-12T08:40:10;100474.78;;;7.63;100.00
23118;BME280;11728;50.624;6.014;2023-02-12T08:45:13;100453.97;;;7.73;100.00
23118;BME280;11728;50.624;6.014;2023-02-12T08:50:13;100463.03;;;7.84;100.00
23118;BME280;11728;50.624;6.014;2023-02-12T08:55:14;100466.97;;;8.04;100.00
23118;BME280;11728;50.624;6.014;2023-02-12T09:00:15;100464.53;;;8.13;100.00
23118;BME280;11728;50.624;6.014;2023-02-12T09:05:16;100460.38;;;8.21;100.00
23118;BME280;11728;50.624;6.014;2023-02-12T09:10:16;100464.06;;;8.29;100.00
23118;BME280;11728;50.624;6.014;2023-02-12T09:15:16;100466.84;;;8.38;100.00
23118;BME280;11728;50.624;6.014;2023-02-12T09:20:17;100472.44;;;8.53;100.00
23118;BME280;11728;50.624;6.014;2023-02-12T09:25:17;100472.63;;;8.63;100.00
23118;BME280;11728;50.624;6.014;2023-02-12T09:30:24;100471.78;;;8.63;100.00
23118;BME280;11728;50.624;6.014;2023-02-12T09:35:24;100470.94;;;8.65;100.00
23118;BME280;11728;50.624;6.014;2023-02-12T09:40:32;100462.31;;;8.74;100.00
23118;BME280;11728;50.624;6.014;2023-02-12T09:45:42;100465.47;;;9.01;100.00
23118;BME280;11728;50.624;6.014;2023-02-12T09:50:51;100462.00;;;9.02;100.00
23118;BME280;11728;50.624;6.014;2023-02-12T09:55:53;100466.41;;;9.04;100.00
23118;BME280;11728;50.624;6.014;2023-02-12T10:00:54;100479.78;;;9.15;100.00
23118;BME280;11728;50.624;6.014;2023-02-12T10:06:04;100478.06;;;9.17;100.00
23118;BME280;11728;50.624;6.014;2023-02-12T10:27:24;100482.88;;;9.41;100.00
23118;BME280;11728;50.624;6.014;2023-02-12T10:32:34;100485.69;;;9.50;100.00
23118;BME280;11728;50.624;6.014;2023-02-12T10:38:04;100477.00;;;9.57;100.00
23118;BME280;11728;50.624;6.014;2023-02-12T11:01:33;100486.03;;;9.71;97.70
23118;BME280;11728;50.624;6.014;2023-02-12T11:06:37;100473.91;;;9.82;97.69
23118;BME280;11728;50.624;6.014;2023-02-12T11:11:38;100469.56;;;9.86;97.27
23118;BME280;11728;50.624;6.014;2023-02-12T11:16:49;100455.56;;;9.91;97.08
23118;BME280;11728;50.624;6.014;2023-02-12T11:21:52;100452.19;;;9.98;96.70
23118;BME280;11728;50.624;6.014;2023-02-12T11:27:28;100438.03;;;9.96;96.39
23118;BME280;11728;50.624;6.014;2023-02-12T11:32:29;100439.19;;;10.13;96.27
23118;BME280;11728;50.624;6.014;2023-02-12T11:37:31;100427.84;;;10.20;95.65
23118;BME280;11728;50.624;6.014;2023-02-12T11:42:34;100412.13;;;10.30;95.38
23118;BME280;11728;50.624;6.014;2023-02-12T11:47:39;100419.16;;;10.28;95.02
23118;BME280;11728;50.624;6.014;2023-02-12T11:52:40;100416.50;;;10.27;94.71
23118;BME280;11728;50.624;6.014;2023-02-12T11:57:50;100412.94;;;10.26;94.82
23118;BME280;11728;50.624;6.014;2023-02-12T12:08:09;100399.91;;;10.38;94.48
23118;BME280;11728;50.624;6.014;2023-02-12T12:13:17;100392.13;;;10.52;94.07
23118;BME280;11728;50.624;6.014;2023-02-12T12:18:28;100385.97;;;10.51;93.58
23118;BME280;11728;50.624;6.014;2023-02-12T12:23:57;100383.28;;;10.48;92.84
23118;BME280;11728;50.624;6.014;2023-02-12T12:29:05;100371.78;;;10.42;92.22
23118;BME280;11728;50.624;6.014;2023-02-12T12:34:15;100376.25;;;10.49;92.15
23118;BME280;11728;50.624;6.014;2023-02-12T12:39:34;100369.25;;;10.52;90.84
23118;BME280;11728;50.624;6.014;2023-02-12T12:45:01;100367.59;;;10.62;90.77
23118;BME280;11728;50.624;6.014;2023-02-12T13:17:08;100339.75;;;11.02;88.02
23118;BME280;11728;50.624;6.014;2023-02-12T13:22:16;100327.38;;;10.95;88.16
23118;BME280;11728;50.624;6.014;2023-02-12T13:27:24;100323.00;;;10.99;87.92
23118;BME280;11728;50.624;6.014;2023-02-12T13:32:32;100321.34;;;11.10;87.38
23118;BME280;11728;50.624;6.014;2023-02-12T13:37:40;100309.94;;;11.18;87.18
23118;BME280;11728;50.624;6.014;2023-02-12T13:42:49;100302.81;;;11.08;86.76
23118;BME280;11728;50.624;6.014;2023-02-12T13:58:50;100301.06;;;11.10;86.79
23118;BME280;11728;50.624;6.014;2023-02-12T14:03:50;100293.16;;;11.12;86.16
23118;BME280;11728;50.624;6.014;2023-02-12T14:09:06;100289.56;;;11.04;85.35
23118;BME280;11728;50.624;6.014;2023-02-12T14:14:07;100292.25;;;11.10;85.92
23118;BME280;11728;50.624;6.014;2023-02-12T14:19:51;100286.00;;;11.03;86.13
23118;BME280;11728;50.624;6.014;2023-02-12T14:24:55;100290.41;;;10.98;86.18
23118;BME280;11728;50.624;6.014;2023-02-12T14:35:31;100285.97;;;10.97;85.81
23118;BME280;11728;50.624;6.014;2023-02-12T14:45:33;100285.94;;;10.90;85.85
23118;BME280;11728;50.624;6.014;2023-02-12T14:50:42;100292.13;;;10.95;86.00
23118;BME280;11728;50.624;6.014;2023-02-12T14:55:50;100290.41;;;10.97;86.15
23118;BME280;11728;50.624;6.014;2023-02-12T15:00:53;100285.16;;;11.01;86.26
23118;BME280;11728;50.624;6.014;2023-02-12T15:11:48;100285.03;;;10.86;86.67
23118;BME280;11728;50.624;6.014;2023-02-12T15:17:07;100298.16;;;10.79;86.96
23118;BME280;11728;50.624;6.014;2023-02-12T15:22:19;100290.22;;;10.77;86.79
23118;BME280;11728;50.624;6.014;2023-02-12T15:27:21;100288.38;;;10.68;87.03
23118;BME280;11728;50.624;6.014;2023-02-12T15:32:24;100288.38;;;10.65;87.22
23118;BME280;11728;50.624;6.014;2023-02-12T15:37:28;100279.53;;;10.66;87.13
23118;BME280;11728;50.624;6.014;2023-02-12T15:42:35;100283.91;;;10.58;87.17
23118;BME280;11728;50.624;6.014;2023-02-12T15:47:37;100282.94;;;10.53;87.43
23118;BME280;11728;50.624;6.014;2023-02-12T15:52:39;100282.91;;;10.47;87.84
23118;BME280;11728;50.624;6.014;2023-02-12T15:57:41;100277.53;;;10.38;88.02
23118;BME280;11728;50.624;6.014;2023-02-12T16:02:50;100280.09;;;10.30;88.32
23118;BME280;11728;50.624;6.014;2023-02-12T16:07:51;100272.94;;;10.22;88.44
23118;BME280;11728;50.624;6.014;2023-02-12T16:12:52;100277.25;;;10.14;88.71
23118;BME280;11728;50.624;6.014;2023-02-12T16:17:53;100270.09;;;10.01;89.26
23118;BME280;11728;50.624;6.014;2023-02-12T16:22:54;100269.06;;;9.92;89.48
23118;BME280;11728;50.624;6.014;2023-02-12T16:28:00;100272.44;;;9.80;90.12
23118;BME280;11728;50.624;6.014;2023-02-12T16:33:02;100273.19;;;9.67;90.66
23118;BME280;11728;50.624;6.014;2023-02-12T16:38:27;100275.69;;;9.57;90.73
23118;BME280;11728;50.624;6.014;2023-02-12T16:43:24;100279.00;;;9.44;91.23
23118;BME280;11728;50.624;6.014;2023-02-12T16:48:26;100277.97;;;9.31;91.56
23118;BME280;11728;50.624;6.014;2023-02-12T16:53:33;100280.56;;;9.28;91.93
23118;BME280;11728;50.624;6.014;2023-02-12T16:58:35;100284.91;;;9.26;92.47
23118;BME280;11728;50.624;6.014;2023-02-12T17:03:36;100285.88;;;9.31;92.40
23118;BME280;11728;50.624;6.014;2023-02-12T17:08:36;100288.53;;;9.33;92.55
23118;BME280;11728;50.624;6.014;2023-02-12T17:13:36;100294.66;;;9.32;92.87
23118;BME280;11728;50.624;6.014;2023-02-12T17:18:37;100284.91;;;9.26;93.14
23118;BME280;11728;50.624;6.014;2023-02-12T17:23:38;100279.53;;;9.18;93.28
23118;BME280;11728;50.624;6.014;2023-02-12T17:28:38;100274.81;;;8.97;93.93
23118;BME280;11728;50.624;6.014;2023-02-12T17:33:40;100277.94;;;8.74;94.32
23118;BME280;11728;50.624;6.014;2023-02-12T17:38:40;100281.03;;;8.47;94.92
23118;BME280;11728;50.624;6.014;2023-02-12T17:43:41;100277.97;;;8.25;95.52
23118;BME280;11728;50.624;6.014;2023-02-12T17:48:41;100281.94;;;8.05;96.35
23118;BME280;11728;50.624;6.014;2023-02-12T17:53:42;100290.38;;;7.88;96.65
23118;BME280;11728;50.624;6.014;2023-02-12T17:58:43;100292.63;;;7.71;97.10
23118;BME280;11728;50.624;6.014;2023-02-12T18:03:44;100297.53;;;7.54;97.69
23118;BME280;11728;50.624;6.014;2023-02-12T18:08:44;100299.88;;;7.42;98.41
23118;BME280;11728;50.624;6.014;2023-02-12T18:13:45;100306.72;;;7.34;98.69
23118;BME280;11728;50.624;6.014;2023-02-12T18:18:46;100296.88;;;7.24;98.84
23118;BME280;11728;50.624;6.014;2023-02-12T18:23:46;100295.63;;;7.08;99.51
23118;BME280;11728;50.624;6.014;2023-02-12T18:28:47;100294.38;;;6.93;100.00
23118;BME280;11728;50.624;6.014;2023-02-12T18:33:47;100297.63;;;6.83;99.98
23118;BME280;11728;50.624;6.014;2023-02-12T18:38:50;100294.63;;;6.68;100.00
23118;BME280;11728;50.624;6.014;2023-02-12T18:43:51;100293.63;;;6.62;100.00
23118;BME280;11728;50.624;6.014;2023-02-12T18:48:52;100287.19;;;6.51;100.00
23118;BME280;11728;50.624;6.014;2023-02-12T18:53:54;100280.75;;;6.38;100.00
23118;BME280;11728;50.624;6.014;2023-02-12T18:58:56;100282.13;;;6.24;100.00
23118;BME280;11728;50.624;6.014;2023-02-12T19:03:59;100274.91;;;6.14;100.00
23118;BME280;11728;50.624;6.014;2023-02-12T19:09:01;100278.16;;;6.06;100.00
23118;BME280;11728;50.624;6.014;2023-02-12T19:14:02;100285.69;;;5.94;100.00
23118;BME280;11728;50.624;6.014;2023-02-12T19:19:03;100278.56;;;5.90;100.00
23118;BME280;11728;50.624;6.014;2023-02-12T19:24:04;100277.69;;;5.90;100.00
23118;BME280;11728;50.624;6.014;2023-02-12T19:29:05;100283.66;;;5.84;100.00
23118;BME280;11728;50.624;6.014;2023-02-12T19:34:08;100276.16;;;5.68;100.00
23118;BME280;11728;50.624;6.014;2023-02-12T19:39:18;100273.19;;;5.55;100.00
23118;BME280;11728;50.624;6.014;2023-02-12T19:44:21;100270.16;;;5.41;100.00
23118;BME280;11728;50.624;6.014;2023-02-12T19:49:24;100269.72;;;5.27;100.00
23118;BME280;11728;50.624;6.014;2023-02-12T19:54:24;100273.78;;;5.17;100.00
23118;BME280;11728;50.624;6.014;2023-02-12T19:59:25;100260.41;;;5.08;100.00
23118;BME280;11728;50.624;6.014;2023-02-12T20:04:26;100268.09;;;5.02;100.00
23118;BME280;11728;50.624;6.014;2023-02-12T20:09:26;100265.22;;;4.95;100.00
23118;BME280;11728;50.624;6.014;2023-02-12T20:14:27;100258.78;;;4.84;100.00
23118;BME280;11728;50.624;6.014;2023-02-12T20:19:30;100267.13;;;4.72;100.00
23118;BME280;11728;50.624;6.014;2023-02-12T20:24:32;100259.81;;;4.62;100.00
23118;BME280;11728;50.624;6.014;2023-02-12T20:29:33;100253.41;;;4.53;100.00
23118;BME280;11728;50.624;6.014;2023-02-12T20:34:33;100270.72;;;4.48;100.00
23118;BME280;11728;50.624;6.014;2023-02-12T20:39:33;100267.81;;;4.41;100.00
23118;BME280;11728;50.624;6.014;2023-02-12T20:44:34;100266.84;;;4.37;100.00
23118;BME280;11728;50.624;6.014;2023-02-12T20:49:34;100269.22;;;4.30;100.00
23118;BME280;11728;50.624;6.014;2023-02-12T20:54:35;100270.56;;;4.19;100.00
23118;BME280;11728;50.624;6.014;2023-02-12T20:59:37;100268.53;;;4.10;100.00
23118;BME280;11728;50.624;6.014;2023-02-12T21:04:37;100260.41;;;4.03;100.00
23118;BME280;11728;50.624;6.014;2023-02-12T21:09:37;100253.16;;;3.94;100.00
23118;BME280;11728;50.624;6.014;2023-02-12T21:14:38;100251.16;;;3.87;100.00
23118;BME280;11728;50.624;6.014;2023-02-12T21:19:38;100251.84;;;3.82;100.00
23118;BME280;11728;50.624;6.014;2023-02-12T21:24:38;100244.75;;;3.78;100.00
23118;BME280;11728;50.624;6.014;2023-02-12T21:29:39;100246.44;;;3.78;100.00
23118;BME280;11728;50.624;6.014;2023-02-12T21:34:39;100250.88;;;3.80;100.00
23118;BME280;11728;50.624;6.014;2023-02-12T21:39:39;100257.84;;;3.79;100.00
23118;BME280;11728;50.624;6.014;2023-02-12T21:44:40;100257.72;;;3.77;100.00
23118;BME280;11728;50.624;6.014;2023-02-12T21:49:40;100267.72;;;3.63;100.00
23118;BME280;11728;50.624;6.014;2023-02-12T21:54:41;100278.00;;;3.59;100.00
23118;BME280;11728;50.624;6.014;2023-02-12T21:59:41;100277.94;;;3.57;100.00
23118;BME280;11728;50.624;6.014;2023-02-12T22:04:41;100277.69;;;3.51;100.00
23118;BME280;11728;50.624;6.014;2023-02-12T22:09:44;100275.69;;;3.44;100.00
23118;BME280;11728;50.624;6.014;2023-02-12T22:14:44;100280.59;;;3.35;100.00
23118;BME280;11728;50.624;6.014;2023-02-12T22:19:44;100276.66;;;3.23;100.00
23118;BME280;11728;50.624;6.014;2023-02-12T22:24:45;100278.94;;;3.15;100.00
23118;BME280;11728;50.624;6.014;2023-02-12T22:29:45;100280.16;;;3.02;100.00
23118;BME280;11728;50.624;6.014;2023-02-12T22:34:46;100275.56;;;2.96;100.00
23118;BME280;11728;50.624;6.014;2023-02-12T22:39:46;100274.09;;;2.81;100.00
23118;BME280;11728;50.624;6.014;2023-02-12T22:44:46;100263.84;;;2.63;100.00
23118;BME280;11728;50.624;6.014;2023-02-12T22:49:47;100256.06;;;2.65;100.00
23118;BME280;11728;50.624;6.014;2023-02-12T22:54:47;100262.13;;;2.64;100.00
23118;BME280;11728;50.624;6.014;2023-02-12T22:59:47;100263.25;;;2.70;100.00
23118;BME280;11728;50.624;6.014;2023-02-12T23:04:48;100262.25;;;2.89;100.00
23118;BME280;11728;50.624;6.014;2023-02-12T23:09:48;100266.81;;;2.94;100.00
23118;BME280;11728;50.624;6.014;2023-02-12T23:14:48;100272.97;;;2.96;100.00
23118;BME280;11728;50.624;6.014;2023-02-12T23:19:49;100268.53;;;2.94;100.00
23118;BME280;11728;50.624;6.014;2023-02-12T23:24:49;100272.78;;;2.92;100.00
23118;BME280;11728;50.624;6.014;2023-02-12T23:29:50;100274.34;;;2.87;100.00
23118;BME280;11728;50.624;6.014;2023-02-12T23:34:50;100272.31;;;2.80;100.00
23118;BME280;11728;50.624;6.014;2023-02-12T23:39:50;100267.66;;;2.71;100.00
23118;BME280;11728;50.624;6.014;2023-02-12T23:44:51;100268.28;;;2.66;100.00
23118;BME280;11728;50.624;6.014;2023-02-12T23:49:51;100255.13;;;2.63;100.00
23118;BME280;11728;50.624;6.014;2023-02-12T23:54:51;100243.56;;;2.56;100.00
23118;BME280;11728;50.624;6.014;2023-02-12T23:59:52;100240.88;;;2.55;100.00
